sensor_id;sensor_type;location;lat;lon;timestamp;pressure;altitude;pressure_sealevel;temperature;humidity
3524;BME280;1776;53.330;11.498;2023-12-20T00:01:01;19953.75;;;-147.39;99.92
3524;BME280;1776;53.330;11.498;2023-12-20T00:03:27;19984.22;;;-147.39;99.43
3524;BME280;1776;53.330;11.498;2023-12-20T00:05:52;19974.06;;;-147.39;99.42
3524;BME280;1776;53.330;11.498;2023-12-20T00:08:17;19984.22;;;-147.39;99.59
3524;BME280;1776;53.330;11.498;2023-12-20T00:10:43;19974.06;;;-147.39;99.59
3524;BME280;1776;53.330;11.498;2023-12-20T00:13:09;19963.91;;;-147.39;99.89
3524;BME280;1776;53.330;11.498;2023-12-20T00:15:34;19935.47;;;-147.39;99.90
3524;BME280;1776;53.330;11.498;2023-12-20T00:18:00;19947.66;;;-147.39;100.00
3524;BME280;1776;53.330;11.498;2023-12-20T00:20:26;19902.97;;;-147.39;100.00
3524;BME280;1776;53.330;11.498;2023-12-20T00:22:51;19990.31;;;-147.39;100.00
3524;BME280;1776;53.330;11.498;2023-12-20T00:25:17;19951.72;;;-147.39;100.00
3524;BME280;1776;53.330;11.498;2023-12-20T00:27:42;19933.44;;;-147.39;99.92
3524;BME280;1776;53.330;11.498;2023-12-20T00:30:08;19970.00;;;-147.39;99.83
3524;BME280;1776;53.330;11.498;2023-12-20T00:32:35;19931.41;;;-147.39;99.98
3524;BME280;1776;53.330;11.498;2023-12-20T00:35:00;19990.31;;;-147.39;99.91
3524;BME280;1776;53.330;11.498;2023-12-20T00:37:25;19921.25;;;-147.39;100.00
3524;BME280;1776;53.330;11.498;2023-12-20T00:39:51;19951.72;;;-147.39;100.00
3524;BME280;1776;53.330;11.498;2023-12-20T00:42:16;19919.22;;;-147.39;100.00
3524;BME280;1776;53.330;11.498;2023-12-20T00:44:41;19925.31;;;-147.39;100.00
3524;BME280;1776;53.330;11.498;2023-12-20T00:47:06;19882.66;;;-147.39;100.00
3524;BME280;1776;53.330;11.498;2023-12-20T00:49:32;19907.03;;;-147.39;100.00
3524;BME280;1776;53.330;11.498;2023-12-20T00:51:57;19868.44;;;-147.39;100.00
3524;BME280;1776;53.330;11.498;2023-12-20T00:54:22;19882.66;;;-147.39;100.00
3524;BME280;1776;53.330;11.498;2023-12-20T00:56:47;19864.38;;;-147.39;100.00
3524;BME280;1776;53.330;11.498;2023-12-20T00:59:13;19878.59;;;-147.39;100.00
3524;BME280;1776;53.330;11.498;2023-12-20T01:01:38;19880.63;;;-147.39;100.00
3524;BME280;1776;53.330;11.498;2023-12-20T01:04:03;19868.44;;;-147.39;100.00
3524;BME280;1776;53.330;11.498;2023-12-20T01:06:29;19876.56;;;-147.39;100.00
3524;BME280;1776;53.330;11.498;2023-12-20T01:08:54;19856.25;;;-147.39;100.00
3524;BME280;1776;53.330;11.498;2023-12-20T01:11:19;19898.91;;;-147.39;100.00
3524;BME280;1776;53.330;11.498;2023-12-20T01:13:44;19915.16;;;-147.39;100.00
3524;BME280;1776;53.330;11.498;2023-12-20T01:16:11;19902.97;;;-147.39;100.00
3524;BME280;1776;53.330;11.498;2023-12-20T01:18:37;19941.56;;;-147.39;100.00
3524;BME280;1776;53.330;11.498;2023-12-20T01:21:02;19935.47;;;-147.39;99.84
3524;BME280;1776;53.330;11.498;2023-12-20T01:23:28;19951.72;;;-147.39;100.00
3524;BME280;1776;53.330;11.498;2023-12-20T01:25:53;19963.91;;;-147.39;99.62
3524;BME280;1776;53.330;11.498;2023-12-20T01:28:19;19929.38;;;-147.39;99.80
3524;BME280;1776;53.330;11.498;2023-12-20T01:30:44;19959.84;;;-147.39;99.70
3524;BME280;1776;53.330;11.498;2023-12-20T01:33:09;19939.53;;;-147.39;99.75
3524;BME280;1776;53.330;11.498;2023-12-20T01:35:34;19957.81;;;-147.39;99.50
3524;BME280;1776;53.330;11.498;2023-12-20T01:38:00;19953.75;;;-147.39;99.61
3524;BME280;1776;53.330;11.498;2023-12-20T01:40:25;19963.91;;;-147.39;99.45
3524;BME280;1776;53.330;11.498;2023-12-20T01:43:00;19947.66;;;-147.39;99.44
3524;BME280;1776;53.330;11.498;2023-12-20T01:45:26;19961.88;;;-147.39;99.54
3524;BME280;1776;53.330;11.498;2023-12-20T01:47:51;19982.19;;;-147.39;99.41
3524;BME280;1776;53.330;11.498;2023-12-20T01:50:17;19982.19;;;-147.39;99.36
3524;BME280;1776;53.330;11.498;2023-12-20T01:52:43;20000.47;;;-147.39;99.43
3524;BME280;1776;53.330;11.498;2023-12-20T01:55:08;19992.34;;;-147.39;99.46
3524;BME280;1776;53.330;11.498;2023-12-20T01:57:39;19974.06;;;-147.39;99.39
3524;BME280;1776;53.330;11.498;2023-12-20T02:00:06;19986.25;;;-147.39;99.47
3524;BME280;1776;53.330;11.498;2023-12-20T02:02:32;19998.44;;;-147.39;99.60
3524;BME280;1776;53.330;11.498;2023-12-20T02:04:58;19994.38;;;-147.39;99.48
3524;BME280;1776;53.330;11.498;2023-12-20T02:07:23;19972.03;;;-147.39;99.34
3524;BME280;1776;53.330;11.498;2023-12-20T02:09:49;19955.78;;;-147.39;99.42
3524;BME280;1776;53.330;11.498;2023-12-20T02:12:15;19986.25;;;-147.39;99.52
3524;BME280;1776;53.330;11.498;2023-12-20T02:14:40;19955.78;;;-147.39;99.44
3524;BME280;1776;53.330;11.498;2023-12-20T02:17:05;19955.78;;;-147.39;99.49
3524;BME280;1776;53.330;11.498;2023-12-20T02:19:31;19931.41;;;-147.39;99.64
3524;BME280;1776;53.330;11.498;2023-12-20T02:22:09;19953.75;;;-147.39;99.73
3524;BME280;1776;53.330;11.498;2023-12-20T02:24:35;19947.66;;;-147.39;99.69
3524;BME280;1776;53.330;11.498;2023-12-20T02:27:00;19949.69;;;-147.39;99.76
3524;BME280;1776;53.330;11.498;2023-12-20T02:29:26;19931.41;;;-147.39;99.94
3524;BME280;1776;53.330;11.498;2023-12-20T02:31:51;19984.22;;;-147.39;99.85
3524;BME280;1776;53.330;11.498;2023-12-20T02:34:16;19945.63;;;-147.39;100.00
3524;BME280;1776;53.330;11.498;2023-12-20T02:36:42;19959.84;;;-147.39;100.00
3524;BME280;1776;53.330;11.498;2023-12-20T02:39:07;19961.88;;;-147.39;99.68
3524;BME280;1776;53.330;11.498;2023-12-20T02:41:33;19990.31;;;-147.39;99.79
3524;BME280;1776;53.330;11.498;2023-12-20T02:43:58;19923.28;;;-147.39;99.59
3524;BME280;1776;53.330;11.498;2023-12-20T02:46:23;19947.66;;;-147.39;99.46
3524;BME280;1776;53.330;11.498;2023-12-20T02:48:49;19957.81;;;-147.39;99.69
3524;BME280;1776;53.330;11.498;2023-12-20T02:51:14;19923.28;;;-147.39;99.90
3524;BME280;1776;53.330;11.498;2023-12-20T02:53:39;19947.66;;;-147.39;99.86
3524;BME280;1776;53.330;11.498;2023-12-20T02:56:04;19988.28;;;-147.39;99.79
3524;BME280;1776;53.330;11.498;2023-12-20T02:58:30;19935.47;;;-147.39;99.95
3524;BME280;1776;53.330;11.498;2023-12-20T03:00:55;19959.84;;;-147.39;99.81
3524;BME280;1776;53.330;11.498;2023-12-20T03:03:20;19943.59;;;-147.39;99.91
3524;BME280;1776;53.330;11.498;2023-12-20T03:05:46;19957.81;;;-147.39;99.85
3524;BME280;1776;53.330;11.498;2023-12-20T03:08:11;19937.50;;;-147.39;99.89
3524;BME280;1776;53.330;11.498;2023-12-20T03:10:36;19913.13;;;-147.39;100.00
3524;BME280;1776;53.330;11.498;2023-12-20T03:13:02;19935.47;;;-147.39;100.00
3524;BME280;1776;53.330;11.498;2023-12-20T03:15:27;19943.59;;;-147.39;99.97
3524;BME280;1776;53.330;11.498;2023-12-20T03:17:52;19953.75;;;-147.39;99.76
3524;BME280;1776;53.330;11.498;2023-12-20T03:20:17;19972.03;;;-147.39;99.78
3524;BME280;1776;53.330;11.498;2023-12-20T03:22:43;19919.22;;;-147.39;99.75
3524;BME280;1776;53.330;11.498;2023-12-20T03:25:08;19931.41;;;-147.39;99.80
3524;BME280;1776;53.330;11.498;2023-12-20T03:27:33;19970.00;;;-147.39;99.60
3524;BME280;1776;53.330;11.498;2023-12-20T03:29:58;19974.06;;;-147.39;99.66
3524;BME280;1776;53.330;11.498;2023-12-20T03:32:24;19931.41;;;-147.39;99.71
3524;BME280;1776;53.330;11.498;2023-12-20T03:34:49;19929.38;;;-147.39;99.86
3524;BME280;1776;53.330;11.498;2023-12-20T03:37:15;19927.34;;;-147.39;99.79
3524;BME280;1776;53.330;11.498;2023-12-20T03:39:40;19994.38;;;-147.39;99.77
3524;BME280;1776;53.330;11.498;2023-12-20T03:42:05;20000.47;;;-147.39;99.42
3524;BME280;1776;53.330;11.498;2023-12-20T03:44:31;19965.94;;;-147.39;99.38
3524;BME280;1776;53.330;11.498;2023-12-20T03:46:56;20032.97;;;-147.39;99.59
3524;BME280;1776;53.330;11.498;2023-12-20T03:49:21;19994.38;;;-147.39;99.10
3524;BME280;1776;53.330;11.498;2023-12-20T03:51:47;19957.81;;;-147.39;99.59
3524;BME280;1776;53.330;11.498;2023-12-20T03:54:12;20022.81;;;-147.39;99.49
3524;BME280;1776;53.330;11.498;2023-12-20T03:56:37;19965.94;;;-147.39;99.58
3524;BME280;1776;53.330;11.498;2023-12-20T03:59:02;20008.59;;;-147.39;99.62
3524;BME280;1776;53.330;11.498;2023-12-20T04:01:28;19982.19;;;-147.39;99.73
3524;BME280;1776;53.330;11.498;2023-12-20T04:03:53;19933.44;;;-147.39;99.28
3524;BME280;1776;53.330;11.498;2023-12-20T04:06:18;19963.91;;;-147.39;99.28
3524;BME280;1776;53.330;11.498;2023-12-20T04:08:44;19980.16;;;-147.39;99.33
3524;BME280;1776;53.330;11.498;2023-12-20T04:11:09;20035.00;;;-147.39;99.24
3524;BME280;1776;53.330;11.498;2023-12-20T04:13:34;20002.50;;;-147.39;99.30
3524;BME280;1776;53.330;11.498;2023-12-20T04:15:59;20004.53;;;-147.39;99.09
3524;BME280;1776;53.330;11.498;2023-12-20T04:18:25;20012.66;;;-147.39;99.06
3524;BME280;1776;53.330;11.498;2023-12-20T04:20:50;20008.59;;;-147.39;98.84
3524;BME280;1776;53.330;11.498;2023-12-20T04:23:16;20026.88;;;-147.39;98.78
3524;BME280;1776;53.330;11.498;2023-12-20T04:25:41;20030.94;;;-147.39;98.81
3524;BME280;1776;53.330;11.498;2023-12-20T04:28:07;20039.06;;;-147.39;98.60
3524;BME280;1776;53.330;11.498;2023-12-20T04:30:32;20030.94;;;-147.39;98.92
3524;BME280;1776;53.330;11.498;2023-12-20T04:32:57;20069.53;;;-147.39;98.89
3524;BME280;1776;53.330;11.498;2023-12-20T04:35:22;20018.75;;;-147.39;98.74
3524;BME280;1776;53.330;11.498;2023-12-20T04:37:48;20041.09;;;-147.39;98.51
3524;BME280;1776;53.330;11.498;2023-12-20T04:40:14;20057.34;;;-147.39;98.38
3524;BME280;1776;53.330;11.498;2023-12-20T04:42:40;20067.50;;;-147.39;98.42
3524;BME280;1776;53.330;11.498;2023-12-20T04:45:05;20081.69;;;-147.39;98.49
3524;BME280;1776;53.330;11.498;2023-12-20T04:47:30;20130.44;;;-147.39;98.12
3524;BME280;1776;53.330;11.498;2023-12-20T04:49:56;20073.59;;;-147.39;98.24
3524;BME280;1776;53.330;11.498;2023-12-20T04:52:21;20071.53;;;-147.39;98.07
3524;BME280;1776;53.330;11.498;2023-12-20T04:54:46;20130.44;;;-147.39;97.95
3524;BME280;1776;53.330;11.498;2023-12-20T04:57:12;20099.97;;;-147.39;97.78
3524;BME280;1776;53.330;11.498;2023-12-20T04:59:37;20134.50;;;-147.39;97.93
3524;BME280;1776;53.330;11.498;2023-12-20T05:02:02;20110.13;;;-147.39;97.94
3524;BME280;1776;53.330;11.498;2023-12-20T05:04:28;20146.69;;;-147.39;97.96
3524;BME280;1776;53.330;11.498;2023-12-20T05:06:53;20140.59;;;-147.39;97.50
3524;BME280;1776;53.330;11.498;2023-12-20T05:09:18;20197.47;;;-147.39;97.35
3524;BME280;1776;53.330;11.498;2023-12-20T05:11:43;20136.53;;;-147.39;97.54
3524;BME280;1776;53.330;11.498;2023-12-20T05:14:08;20191.38;;;-147.39;97.46
3524;BME280;1776;53.330;11.498;2023-12-20T05:16:34;20162.94;;;-147.39;97.59
3524;BME280;1776;53.330;11.498;2023-12-20T05:18:59;20154.81;;;-147.39;97.23
3524;BME280;1776;53.330;11.498;2023-12-20T05:21:26;20171.06;;;-147.39;97.33
3524;BME280;1776;53.330;11.498;2023-12-20T05:23:51;20164.97;;;-147.39;97.23
3524;BME280;1776;53.330;11.498;2023-12-20T05:26:16;20140.59;;;-147.39;97.29
3524;BME280;1776;53.330;11.498;2023-12-20T05:28:41;20177.16;;;-147.39;97.40
3524;BME280;1776;53.330;11.498;2023-12-20T05:31:07;20167.00;;;-147.39;97.31
3524;BME280;1776;53.330;11.498;2023-12-20T05:33:32;20171.06;;;-147.39;97.31
3524;BME280;1776;53.330;11.498;2023-12-20T05:35:57;20177.16;;;-147.39;97.48
3524;BME280;1776;53.330;11.498;2023-12-20T05:38:22;20189.34;;;-147.39;97.30
3524;BME280;1776;53.330;11.498;2023-12-20T05:40:48;20175.13;;;-147.39;97.58
3524;BME280;1776;53.330;11.498;2023-12-20T05:43:13;20167.00;;;-147.39;97.26
3524;BME280;1776;53.330;11.498;2023-12-20T05:45:39;20189.34;;;-147.39;97.47
3524;BME280;1776;53.330;11.498;2023-12-20T05:48:04;20229.97;;;-147.39;97.22
3524;BME280;1776;53.330;11.498;2023-12-20T05:50:29;20209.66;;;-147.39;97.37
3524;BME280;1776;53.330;11.498;2023-12-20T05:52:55;20193.41;;;-147.39;97.04
3524;BME280;1776;53.330;11.498;2023-12-20T05:55:20;20215.75;;;-147.39;96.94
3524;BME280;1776;53.330;11.498;2023-12-20T05:57:45;20242.16;;;-147.39;97.15
3524;BME280;1776;53.330;11.498;2023-12-20T06:00:12;20183.25;;;-147.39;97.17
3524;BME280;1776;53.330;11.498;2023-12-20T06:02:38;20195.44;;;-147.39;97.27
3524;BME280;1776;53.330;11.498;2023-12-20T06:05:06;20268.56;;;-147.39;97.32
3524;BME280;1776;53.330;11.498;2023-12-20T06:07:32;20187.31;;;-147.39;97.22
3524;BME280;1776;53.330;11.498;2023-12-20T06:09:57;20183.25;;;-147.39;97.46
3524;BME280;1776;53.330;11.498;2023-12-20T06:12:22;20160.91;;;-147.39;97.58
3524;BME280;1776;53.330;11.498;2023-12-20T06:14:47;20169.03;;;-147.39;97.86
3524;BME280;1776;53.330;11.498;2023-12-20T06:17:13;20175.13;;;-147.39;97.55
3524;BME280;1776;53.330;11.498;2023-12-20T06:19:38;20164.97;;;-147.39;97.89
3524;BME280;1776;53.330;11.498;2023-12-20T06:22:03;20201.53;;;-147.39;97.82
3524;BME280;1776;53.330;11.498;2023-12-20T06:24:28;20173.09;;;-147.39;98.00
3524;BME280;1776;53.330;11.498;2023-12-20T06:26:55;20179.19;;;-147.39;97.78
3524;BME280;1776;53.330;11.498;2023-12-20T06:29:20;20183.25;;;-147.39;97.66
3524;BME280;1776;53.330;11.498;2023-12-20T06:31:45;20164.97;;;-147.39;97.54
3524;BME280;1776;53.330;11.498;2023-12-20T06:34:11;20175.13;;;-147.39;97.54
3524;BME280;1776;53.330;11.498;2023-12-20T06:36:36;20175.13;;;-147.39;97.87
3524;BME280;1776;53.330;11.498;2023-12-20T06:39:01;20164.97;;;-147.39;97.83
3524;BME280;1776;53.330;11.498;2023-12-20T06:41:27;20250.28;;;-147.39;97.60
3524;BME280;1776;53.330;11.498;2023-12-20T06:43:52;20203.56;;;-147.39;97.58
3524;BME280;1776;53.330;11.498;2023-12-20T06:46:18;20201.53;;;-147.39;97.48
3524;BME280;1776;53.330;11.498;2023-12-20T06:48:43;20175.13;;;-147.39;97.53
3524;BME280;1776;53.330;11.498;2023-12-20T06:51:15;20209.66;;;-147.39;97.22
3524;BME280;1776;53.330;11.498;2023-12-20T06:53:41;20242.16;;;-147.39;97.32
3524;BME280;1776;53.330;11.498;2023-12-20T06:56:06;20240.13;;;-147.39;97.33
3524;BME280;1776;53.330;11.498;2023-12-20T06:58:32;20221.84;;;-147.39;97.17
3524;BME280;1776;53.330;11.498;2023-12-20T07:00:58;20229.97;;;-147.39;97.32
3524;BME280;1776;53.330;11.498;2023-12-20T07:03:23;20195.44;;;-147.39;97.21
3524;BME280;1776;53.330;11.498;2023-12-20T07:05:48;20215.75;;;-147.39;97.19
3524;BME280;1776;53.330;11.498;2023-12-20T07:08:13;20221.84;;;-147.39;97.35
3524;BME280;1776;53.330;11.498;2023-12-20T07:10:41;20254.34;;;-147.39;97.09
3524;BME280;1776;53.330;11.498;2023-12-20T07:13:06;20252.31;;;-147.39;96.80
3524;BME280;1776;53.330;11.498;2023-12-20T07:15:32;20242.16;;;-147.39;97.11
3524;BME280;1776;53.330;11.498;2023-12-20T07:17:58;20223.88;;;-147.39;96.82
3524;BME280;1776;53.330;11.498;2023-12-20T07:20:25;20307.16;;;-147.39;96.78
3524;BME280;1776;53.330;11.498;2023-12-20T07:22:50;20221.84;;;-147.39;96.65
3524;BME280;1776;53.330;11.498;2023-12-20T07:25:16;20286.84;;;-147.39;96.50
3524;BME280;1776;53.330;11.498;2023-12-20T07:27:41;20268.56;;;-147.39;96.41
3524;BME280;1776;53.330;11.498;2023-12-20T07:30:06;20282.78;;;-147.39;96.44
3524;BME280;1776;53.330;11.498;2023-12-20T07:32:32;20311.22;;;-147.39;96.18
3524;BME280;1776;53.330;11.498;2023-12-20T07:34:57;20333.56;;;-147.39;95.85
3524;BME280;1776;53.330;11.498;2023-12-20T07:37:22;20353.88;;;-147.39;95.71
3524;BME280;1776;53.330;11.498;2023-12-20T07:39:48;20335.59;;;-147.39;95.62
3524;BME280;1776;53.330;11.498;2023-12-20T07:42:13;20384.38;;;-147.39;95.32
3524;BME280;1776;53.330;11.498;2023-12-20T07:44:38;20422.97;;;-147.39;94.96
3524;BME280;1776;53.330;11.498;2023-12-20T07:47:04;20429.06;;;-147.39;95.26
3524;BME280;1776;53.330;11.498;2023-12-20T07:49:32;20447.34;;;-147.39;94.78
3524;BME280;1776;53.330;11.498;2023-12-20T07:51:57;20398.59;;;-147.39;94.72
3524;BME280;1776;53.330;11.498;2023-12-20T07:54:23;20492.03;;;-147.39;94.78
3524;BME280;1776;53.330;11.498;2023-12-20T07:56:48;20425.00;;;-147.39;94.69
3524;BME280;1776;53.330;11.498;2023-12-20T07:59:14;20435.16;;;-147.39;94.79
3524;BME280;1776;53.330;11.498;2023-12-20T08:01:39;20439.22;;;-147.39;94.59
3524;BME280;1776;53.330;11.498;2023-12-20T08:04:04;20622.03;;;-147.39;94.72
3524;BME280;1776;53.330;11.498;2023-12-20T08:06:30;20461.56;;;-147.39;94.78
3524;BME280;1776;53.330;11.498;2023-12-20T08:08:55;20447.34;;;-147.39;94.65
3524;BME280;1776;53.330;11.498;2023-12-20T08:11:20;20463.59;;;-147.39;94.63
3524;BME280;1776;53.330;11.498;2023-12-20T08:13:45;20465.63;;;-147.39;94.73
3524;BME280;1776;53.330;11.498;2023-12-20T08:16:11;20483.91;;;-147.39;94.82
3524;BME280;1776;53.330;11.498;2023-12-20T08:18:38;20475.78;;;-147.39;94.56
3524;BME280;1776;53.330;11.498;2023-12-20T08:21:03;20459.53;;;-147.39;94.65
3524;BME280;1776;53.330;11.498;2023-12-20T08:23:29;20477.81;;;-147.39;94.34
3524;BME280;1776;53.330;11.498;2023-12-20T08:25:54;20455.47;;;-147.39;94.29
3524;BME280;1776;53.330;11.498;2023-12-20T08:28:19;20536.72;;;-147.39;94.18
3524;BME280;1776;53.330;11.498;2023-12-20T08:30:44;20530.63;;;-147.39;94.26
3524;BME280;1776;53.330;11.498;2023-12-20T08:33:10;20561.09;;;-147.39;94.07
3524;BME280;1776;53.330;11.498;2023-12-20T08:35:40;20518.44;;;-147.39;93.88
3524;BME280;1776;53.330;11.498;2023-12-20T08:38:06;20644.38;;;-147.39;94.04
3524;BME280;1776;53.330;11.498;2023-12-20T08:40:31;20520.47;;;-147.39;93.81
3524;BME280;1776;53.330;11.498;2023-12-20T08:42:56;20597.66;;;-147.39;93.52
3524;BME280;1776;53.330;11.498;2023-12-20T08:45:22;20597.66;;;-147.39;93.28
3524;BME280;1776;53.330;11.498;2023-12-20T08:47:47;20601.72;;;-147.39;93.36
3524;BME280;1776;53.330;11.498;2023-12-20T08:50:12;20660.63;;;-147.39;93.13
3524;BME280;1776;53.330;11.498;2023-12-20T08:52:38;20611.88;;;-147.39;93.24
3524;BME280;1776;53.330;11.498;2023-12-20T08:55:04;20595.63;;;-147.39;92.79
3524;BME280;1776;53.330;11.498;2023-12-20T08:57:29;20646.41;;;-147.39;92.88
3524;BME280;1776;53.330;11.498;2023-12-20T08:59:56;20640.31;;;-147.39;93.09
3524;BME280;1776;53.330;11.498;2023-12-20T09:02:21;20654.53;;;-147.39;92.87
3524;BME280;1776;53.330;11.498;2023-12-20T09:04:47;20644.38;;;-147.39;92.83
3524;BME280;1776;53.330;11.498;2023-12-20T09:07:25;20668.75;;;-147.39;93.02
3524;BME280;1776;53.330;11.498;2023-12-20T09:09:52;20650.47;;;-147.39;93.09
3524;BME280;1776;53.330;11.498;2023-12-20T09:12:20;20664.69;;;-147.39;92.99
3524;BME280;1776;53.330;11.498;2023-12-20T09:14:47;20758.16;;;-147.39;93.42
3524;BME280;1776;53.330;11.498;2023-12-20T09:17:12;20680.94;;;-147.39;93.30
3524;BME280;1776;53.330;11.498;2023-12-20T09:19:38;20660.63;;;-147.39;93.34
3524;BME280;1776;53.330;11.498;2023-12-20T09:22:04;20652.50;;;-147.39;93.61
3524;BME280;1776;53.330;11.498;2023-12-20T09:24:30;20682.97;;;-147.39;93.52
3524;BME280;1776;53.330;11.498;2023-12-20T09:26:55;20626.09;;;-147.39;93.58
3524;BME280;1776;53.330;11.498;2023-12-20T09:29:20;20678.91;;;-147.39;93.84
3524;BME280;1776;53.330;11.498;2023-12-20T09:31:46;20632.19;;;-147.39;94.36
3524;BME280;1776;53.330;11.498;2023-12-20T09:34:11;20634.22;;;-147.39;94.55
3524;BME280;1776;53.330;11.498;2023-12-20T09:36:37;20563.13;;;-147.39;94.92
3524;BME280;1776;53.330;11.498;2023-12-20T09:39:04;20615.94;;;-147.39;95.56
3524;BME280;1776;53.330;11.498;2023-12-20T09:41:31;20542.81;;;-147.39;95.88
3524;BME280;1776;53.330;11.498;2023-12-20T09:44:02;20512.34;;;-147.39;96.04
3524;BME280;1776;53.330;11.498;2023-12-20T09:46:28;20516.41;;;-147.39;96.03
3524;BME280;1776;53.330;11.498;2023-12-20T09:48:56;20520.47;;;-147.39;96.05
3524;BME280;1776;53.330;11.498;2023-12-20T09:51:23;20504.22;;;-147.39;96.16
3524;BME280;1776;53.330;11.498;2023-12-20T09:53:49;20528.59;;;-147.39;95.93
3524;BME280;1776;53.330;11.498;2023-12-20T09:56:15;20617.97;;;-147.39;95.85
3524;BME280;1776;53.330;11.498;2023-12-20T09:58:41;20516.41;;;-147.39;95.87
3524;BME280;1776;53.330;11.498;2023-12-20T10:01:07;20538.75;;;-147.39;95.58
3524;BME280;1776;53.330;11.498;2023-12-20T10:03:33;20555.00;;;-147.39;94.99
3524;BME280;1776;53.330;11.498;2023-12-20T10:06:00;20565.16;;;-147.39;94.78
3524;BME280;1776;53.330;11.498;2023-12-20T10:08:25;20587.50;;;-147.39;94.96
3524;BME280;1776;53.330;11.498;2023-12-20T10:10:51;20624.06;;;-147.39;94.60
3524;BME280;1776;53.330;11.498;2023-12-20T10:13:17;20546.88;;;-147.39;95.45
3524;BME280;1776;53.330;11.498;2023-12-20T10:15:42;20526.56;;;-147.39;95.76
3524;BME280;1776;53.330;11.498;2023-12-20T10:18:08;20536.72;;;-147.39;95.92
3524;BME280;1776;53.330;11.498;2023-12-20T10:20:33;20500.16;;;-147.39;96.51
3524;BME280;1776;53.330;11.498;2023-12-20T10:22:59;20492.03;;;-147.39;96.44
3524;BME280;1776;53.330;11.498;2023-12-20T10:25:25;20463.59;;;-147.39;96.94
3524;BME280;1776;53.330;11.498;2023-12-20T10:28:17;20490.00;;;-147.39;96.41
3524;BME280;1776;53.330;11.498;2023-12-20T10:30:44;20439.22;;;-147.39;96.71
3524;BME280;1776;53.330;11.498;2023-12-20T10:33:09;20441.25;;;-147.39;97.07
3524;BME280;1776;53.330;11.498;2023-12-20T10:35:38;20597.66;;;-147.39;97.22
3524;BME280;1776;53.330;11.498;2023-12-20T10:38:04;20400.63;;;-147.39;97.68
3524;BME280;1776;53.330;11.498;2023-12-20T10:40:31;20402.66;;;-147.39;97.62
3524;BME280;1776;53.330;11.498;2023-12-20T10:42:59;20394.53;;;-147.39;97.54
3524;BME280;1776;53.330;11.498;2023-12-20T10:45:26;20390.47;;;-147.39;97.29
3524;BME280;1776;53.330;11.498;2023-12-20T10:47:51;20410.78;;;-147.39;97.68
3524;BME280;1776;53.330;11.498;2023-12-20T10:50:19;20402.66;;;-147.39;97.49
3524;BME280;1776;53.330;11.498;2023-12-20T10:52:45;20386.41;;;-147.39;97.61
3524;BME280;1776;53.330;11.498;2023-12-20T10:55:11;20439.22;;;-147.39;97.12
3524;BME280;1776;53.330;11.498;2023-12-20T10:57:37;20435.16;;;-147.39;97.27
3524;BME280;1776;53.330;11.498;2023-12-20T11:00:02;20439.22;;;-147.39;96.94
3524;BME280;1776;53.330;11.498;2023-12-20T11:02:32;20508.28;;;-147.39;96.74
3524;BME280;1776;53.330;11.498;2023-12-20T11:05:06;20516.41;;;-147.39;95.37
3524;BME280;1776;53.330;11.498;2023-12-20T11:07:39;20555.00;;;-147.39;95.06
3524;BME280;1776;53.330;11.498;2023-12-20T11:10:31;20530.63;;;-147.39;95.13
3524;BME280;1776;53.330;11.498;2023-12-20T11:13:17;20561.09;;;-147.39;95.17
3524;BME280;1776;53.330;11.498;2023-12-20T11:15:45;20579.38;;;-147.39;95.00
3524;BME280;1776;53.330;11.498;2023-12-20T11:18:11;20573.28;;;-147.39;94.96
3524;BME280;1776;53.330;11.498;2023-12-20T11:20:38;20587.50;;;-147.39;95.07
3524;BME280;1776;53.330;11.498;2023-12-20T11:23:04;20557.03;;;-147.39;94.78
3524;BME280;1776;53.330;11.498;2023-12-20T11:25:29;20638.28;;;-147.39;94.33
3524;BME280;1776;53.330;11.498;2023-12-20T11:28:09;20628.13;;;-147.39;94.04
3524;BME280;1776;53.330;11.498;2023-12-20T11:33:16;20691.09;;;-147.39;93.36
3524;BME280;1776;53.330;11.498;2023-12-20T11:35:45;20662.66;;;-147.39;93.62
3524;BME280;1776;53.330;11.498;2023-12-20T11:38:11;20691.09;;;-147.39;93.17
3524;BME280;1776;53.330;11.498;2023-12-20T11:40:36;20735.78;;;-147.39;92.68
3524;BME280;1776;53.330;11.498;2023-12-20T11:43:03;20723.59;;;-147.39;92.99
3524;BME280;1776;53.330;11.498;2023-12-20T11:45:28;20772.38;;;-147.39;92.60
3524;BME280;1776;53.330;11.498;2023-12-20T11:47:54;20792.69;;;-147.39;92.04
3524;BME280;1776;53.330;11.498;2023-12-20T11:50:20;20810.97;;;-147.39;91.72
3524;BME280;1776;53.330;11.498;2023-12-20T11:52:46;20804.88;;;-147.39;91.79
3524;BME280;1776;53.330;11.498;2023-12-20T11:55:11;20813.00;;;-147.39;91.47
3524;BME280;1776;53.330;11.498;2023-12-20T11:57:37;20221.84;;;-147.39;91.59
3524;BME280;1776;53.330;11.498;2023-12-20T12:00:03;20837.38;;;-147.39;90.93
3524;BME280;1776;53.330;11.498;2023-12-20T12:02:30;20875.97;;;-147.39;90.54
3524;BME280;1776;53.330;11.498;2023-12-20T12:04:55;20894.25;;;-147.39;90.69
3524;BME280;1776;53.330;11.498;2023-12-20T12:07:21;20873.94;;;-147.39;90.82
3524;BME280;1776;53.330;11.498;2023-12-20T12:09:47;20945.06;;;-147.39;91.22
3524;BME280;1776;53.330;11.498;2023-12-20T12:12:12;20855.66;;;-147.39;91.24
3524;BME280;1776;53.330;11.498;2023-12-20T12:14:39;20873.94;;;-147.39;91.25
3524;BME280;1776;53.330;11.498;2023-12-20T12:17:10;20833.31;;;-147.39;91.41
3524;BME280;1776;53.330;11.498;2023-12-20T12:19:35;20882.06;;;-147.39;91.43
3524;BME280;1776;53.330;11.498;2023-12-20T12:22:06;20867.84;;;-147.39;91.62
3524;BME280;1776;53.330;11.498;2023-12-20T12:24:38;20825.19;;;-147.39;92.29
3524;BME280;1776;53.330;11.498;2023-12-20T12:27:06;20849.56;;;-147.39;91.76
3524;BME280;1776;53.330;11.498;2023-12-20T12:29:31;20867.84;;;-147.39;90.82
3524;BME280;1776;53.330;11.498;2023-12-20T12:31:56;20951.16;;;-147.39;89.72
3524;BME280;1776;53.330;11.498;2023-12-20T12:34:23;20918.63;;;-147.39;90.61
3524;BME280;1776;53.330;11.498;2023-12-20T12:36:48;20943.03;;;-147.39;90.76
3524;BME280;1776;53.330;11.498;2023-12-20T12:39:17;20865.81;;;-147.39;91.41
3524;BME280;1776;53.330;11.498;2023-12-20T12:41:43;20833.31;;;-147.39;92.29
3524;BME280;1776;53.330;11.498;2023-12-20T12:44:08;20817.06;;;-147.39;92.74
3524;BME280;1776;53.330;11.498;2023-12-20T12:46:33;20806.91;;;-147.39;92.72